TimeCST,TemperatureF,Dew PointF,Humidity,Sea Level PressureIn,VisibilityMPH,Wind Direction,Wind SpeedMPH,Gust SpeedMPH,PrecipitationIn,Events,Conditions,WindDirDegrees,DateUTC
12:15 AM,30.2,22.3,72,30.21,10.0,NNW,8.1,-,N/A,,Mostly Cloudy,340,2013-02-16 06:15:00
12:35 AM,30.0,22.3,73,30.21,10.0,North,9.2,-,N/A,,Scattered Clouds,350,2013-02-16 06:35:00
12:55 AM,29.8,21.9,72,30.21,10.0,North,9.2,-,N/A,,Clear,350,2013-02-16 06:55:00
1:15 AM,29.3,21.9,74,30.20,10.0,North,9.2,-,N/A,,Clear,360,2013-02-16 07:15:00
1:35 AM,28.9,21.9,75,30.20,10.0,North,8.1,-,N/A,,Clear,350,2013-02-16 07:35:00
1:55 AM,28.4,21.2,74,30.20,10.0,NNW,8.1,-,N/A,,Clear,340,2013-02-16 07:55:00
2:15 AM,28.0,20.3,73,30.20,10.0,NNW,12.7,17.3,N/A,,Clear,340,2013-02-16 08:15:00
2:35 AM,27.5,20.5,75,30.20,10.0,NNW,10.4,-,N/A,,Clear,340,2013-02-16 08:35:00
2:55 AM,27.1,19.2,72,30.20,10.0,North,8.1,-,N/A,,Clear,350,2013-02-16 08:55:00
3:15 AM,26.6,18.5,71,30.20,10.0,North,9.2,-,N/A,,Clear,350,2013-02-16 09:15:00
3:35 AM,26.4,18.1,71,30.20,10.0,North,6.9,-,N/A,,Clear,350,2013-02-16 09:35:00
3:55 AM,25.7,18.9,75,30.21,10.0,NW,4.6,-,N/A,,Clear,320,2013-02-16 09:55:00
4:15 AM,25.7,19.2,76,30.21,10.0,NNW,6.9,-,N/A,,Clear,330,2013-02-16 10:15:00
4:35 AM,25.0,18.7,77,30.21,10.0,NW,5.8,-,N/A,,Clear,310,2013-02-16 10:35:00
4:55 AM,24.8,18.3,76,30.21,10.0,WNW,6.9,-,N/A,,Clear,300,2013-02-16 10:55:00
5:15 AM,24.6,18.3,77,30.21,10.0,WNW,6.9,-,N/A,,Clear,300,2013-02-16 11:15:00
5:35 AM,24.4,18.3,78,30.21,10.0,WNW,8.1,-,N/A,,Clear,300,2013-02-16 11:35:00
5:55 AM,24.8,17.6,74,30.21,10.0,WNW,8.1,-,N/A,,Clear,300,2013-02-16 11:55:00
6:15 AM,24.4,17.6,75,30.21,10.0,NW,11.5,-,N/A,,Clear,320,2013-02-16 12:15:00
6:35 AM,24.4,17.6,75,30.21,10.0,NW,10.4,-,N/A,,Mostly Cloudy,320,2013-02-16 12:35:00
6:55 AM,24.8,17.6,74,30.22,10.0,NW,9.2,-,N/A,,Scattered Clouds,320,2013-02-16 12:55:00
7:15 AM,23.9,17.8,77,30.22,10.0,NW,9.2,-,N/A,,Scattered Clouds,320,2013-02-16 13:15:00
7:35 AM,24.4,17.8,76,30.23,10.0,NNW,12.7,-,N/A,,Mostly Cloudy,330,2013-02-16 13:35:00
7:55 AM,24.6,17.6,75,30.23,10.0,NW,11.5,-,N/A,,Mostly Cloudy,320,2013-02-16 13:55:00
8:15 AM,24.6,17.4,74,30.23,10.0,WNW,10.4,-,N/A,,Mostly Cloudy,300,2013-02-16 14:15:00
8:35 AM,25.3,18.0,74,30.23,10.0,NW,10.4,-,N/A,,Scattered Clouds,320,2013-02-16 14:35:00
8:55 AM,25.7,18.3,74,30.23,10.0,NW,10.4,-,N/A,,Scattered Clouds,320,2013-02-16 14:55:00
9:15 AM,26.4,18.0,70,30.23,10.0,NW,12.7,-,N/A,,Scattered Clouds,320,2013-02-16 15:15:00
9:35 AM,26.2,17.6,70,30.23,10.0,NNW,11.5,-,N/A,,Clear,330,2013-02-16 15:35:00
12:35 PM,30.9,16.0,54,30.21,10.0,NW,10.4,17.3,N/A,,Clear,320,2013-02-16 18:35:00
12:55 PM,31.1,16.5,55,30.21,10.0,WNW,12.7,18.4,N/A,,Clear,300,2013-02-16 18:55:00
1:15 PM,32.0,16.2,52,30.20,10.0,West,17.3,20.7,N/A,,Clear,280,2013-02-16 19:15:00
1:35 PM,32.0,16.9,54,30.20,10.0,NW,13.8,-,N/A,,Clear,320,2013-02-16 19:35:00
1:55 PM,32.5,17.8,55,30.19,10.0,WNW,12.7,20.7,N/A,,Clear,300,2013-02-16 19:55:00
2:15 PM,32.7,19.2,58,30.18,10.0,West,12.7,-,N/A,,Scattered Clouds,260,2013-02-16 20:15:00
2:35 PM,33.3,19.9,58,30.18,10.0,West,11.5,20.7,N/A,,Scattered Clouds,270,2013-02-16 20:35:00
2:55 PM,33.1,18.1,54,30.17,10.0,West,13.8,21.9,N/A,,Scattered Clouds,270,2013-02-16 20:55:00
3:15 PM,33.8,18.5,54,30.17,10.0,WNW,15.0,19.6,N/A,,Clear,290,2013-02-16 21:15:00
3:35 PM,33.6,17.2,51,30.18,10.0,WNW,11.5,16.1,N/A,,Clear,300,2013-02-16 21:35:00
3:55 PM,33.8,17.2,51,30.17,10.0,West,12.7,-,N/A,,Clear,270,2013-02-16 21:55:00
4:15 PM,33.4,16.3,50,30.17,10.0,West,10.4,16.1,N/A,,Clear,260,2013-02-16 22:15:00
4:35 PM,33.6,16.9,50,30.17,10.0,West,11.5,17.3,N/A,,Clear,270,2013-02-16 22:35:00
4:55 PM,33.1,16.0,50,30.17,10.0,West,9.2,-,N/A,,Clear,260,2013-02-16 22:55:00
5:15 PM,32.9,16.5,51,30.17,10.0,West,9.2,-,N/A,,Clear,270,2013-02-16 23:15:00
5:35 PM,32.5,14.7,48,30.17,10.0,WNW,9.2,-,N/A,,Clear,290,2013-02-16 23:35:00
5:55 PM,32.0,15.6,51,30.17,10.0,WNW,6.9,-,N/A,,Clear,290,2013-02-16 23:55:00
6:15 PM,32.0,16.2,52,30.18,10.0,WNW,4.6,-,N/A,,Clear,290,2013-02-17 00:15:00
6:35 PM,31.3,18.3,59,30.18,10.0,Calm,Calm,-,N/A,,Clear,0,2013-02-17 00:35:00
6:55 PM,31.3,18.5,59,30.18,10.0,Calm,Calm,-,N/A,,Clear,0,2013-02-17 00:55:00
7:15 PM,30.6,19.2,63,30.18,10.0,Calm,Calm,-,N/A,,Clear,0,2013-02-17 01:15:00
7:35 PM,30.0,18.5,62,30.18,10.0,WNW,5.8,-,N/A,,Clear,300,2013-02-17 01:35:00
7:55 PM,29.8,18.7,63,30.18,10.0,NW,4.6,-,N/A,,Clear,310,2013-02-17 01:55:00
8:15 PM,30.0,19.8,66,30.18,10.0,NW,4.6,-,N/A,,Clear,320,2013-02-17 02:15:00
8:35 PM,29.8,19.9,67,30.18,10.0,North,3.5,-,N/A,,Clear,350,2013-02-17 02:35:00
8:55 PM,28.8,18.9,67,30.19,10.0,Calm,Calm,-,N/A,,Clear,0,2013-02-17 02:55:00
9:15 PM,29.1,19.2,67,30.19,10.0,Calm,Calm,-,N/A,,Clear,0,2013-02-17 03:15:00
9:35 PM,28.4,21.2,74,30.19,10.0,Calm,Calm,-,N/A,,Clear,0,2013-02-17 03:35:00
9:55 PM,27.5,21.0,77,30.19,10.0,Calm,Calm,-,N/A,,Clear,0,2013-02-17 03:55:00
10:15 PM,27.5,22.1,80,30.19,10.0,WSW,3.5,-,N/A,,Clear,250,2013-02-17 04:15:00
10:35 PM,27.3,21.7,80,30.19,10.0,Calm,Calm,-,N/A,,Clear,0,2013-02-17 04:35:00
10:55 PM,27.1,21.9,81,30.19,10.0,Calm,Calm,-,N/A,,Clear,0,2013-02-17 04:55:00
11:15 PM,26.6,21.2,80,30.18,10.0,Calm,Calm,-,N/A,,Clear,0,2013-02-17 05:15:00
11:35 PM,26.4,20.1,77,30.18,10.0,Calm,Calm,-,N/A,,Clear,0,2013-02-17 05:35:00
11:55 PM,26.1,20.3,79,30.18,10.0,Calm,Calm,-,N/A,,Clear,0,2013-02-17 05:55:00